createdAt,value
2022-07-30T00:00:38.159Z,101820.43
2022-07-30T00:03:07.430Z,101821.23
2022-07-30T00:05:36.977Z,101820.97
2022-07-30T00:08:06.477Z,101811.48
2022-07-30T00:10:35.892Z,101807.41
2022-07-30T00:13:05.182Z,101812.34
2022-07-30T00:15:34.854Z,101810.45
2022-07-30T00:18:04.289Z,101804.20
2022-07-30T00:20:34.009Z,101804.22
2022-07-30T00:23:05.519Z,101802.33
2022-07-30T00:25:35.168Z,101806.16
2022-07-30T00:28:04.778Z,101796.36
2022-07-30T00:30:34.374Z,101802.35
2022-07-30T00:33:03.996Z,101798.54
2022-07-30T00:35:33.255Z,101792.29
2022-07-30T00:38:02.699Z,101793.94
2022-07-30T00:40:32.028Z,101793.65
2022-07-30T00:43:01.369Z,101791.23
2022-07-30T00:45:30.863Z,101791.48
2022-07-30T00:48:01.616Z,101790.13
2022-07-30T00:50:30.877Z,101795.84
2022-07-30T00:53:00.772Z,101793.95
2022-07-30T00:55:30.369Z,101801.04
2022-07-30T00:58:00.081Z,101798.86
2022-07-30T01:00:29.890Z,101798.05
2022-07-30T01:03:00.143Z,101796.14
2022-07-30T01:05:29.521Z,101801.31
2022-07-30T01:07:58.888Z,101801.07
2022-07-30T01:10:28.155Z,101799.70
2022-07-30T01:12:59.141Z,101796.45
2022-07-30T01:15:28.525Z,101796.76
2022-07-30T01:18:00.562Z,101799.45
2022-07-30T01:20:48.253Z,101795.66
2022-07-30T01:23:20.727Z,101794.30
2022-07-30T01:25:53.358Z,101795.66
2022-07-30T01:28:27.799Z,101797.31
2022-07-30T01:30:58.487Z,101794.06
2022-07-30T01:33:29.360Z,101793.78
2022-07-30T01:36:01.442Z,101790.78
2022-07-30T01:38:35.277Z,101788.62
2022-07-30T01:41:04.805Z,101792.69
2022-07-30T01:43:36.198Z,101795.67
2022-07-30T01:46:06.881Z,101787.81
2022-07-30T01:48:38.181Z,101789.20
2022-07-30T01:51:08.171Z,101791.09
2022-07-30T01:53:40.530Z,101787.31
2022-07-30T01:56:12.256Z,101788.66
2022-07-30T01:58:43.869Z,101787.31
2022-07-30T02:01:18.065Z,101784.85
2022-07-30T02:03:47.462Z,101788.67
2022-07-30T02:06:22.457Z,101785.68
2022-07-30T02:09:00.576Z,101792.74
2022-07-30T02:11:51.796Z,101791.91
2022-07-30T02:14:26.833Z,101790.82
2022-07-30T02:16:59.429Z,101790.52
2022-07-30T02:19:32.581Z,101791.61
2022-07-30T02:22:08.615Z,101788.09
2022-07-30T02:24:38.903Z,101794.31
2022-07-30T02:27:11.630Z,101789.16
2022-07-30T02:29:42.360Z,101794.05
2022-07-30T02:32:14.954Z,101793.52
2022-07-30T02:34:45.815Z,101792.42
2022-07-30T02:37:16.881Z,101794.60
2022-07-30T02:39:47.946Z,101792.68
2022-07-30T02:42:17.697Z,101794.86
2022-07-30T02:44:50.581Z,101801.91
2022-07-30T02:47:23.110Z,101796.48
2022-07-30T02:49:55.075Z,101803.80
2022-07-30T02:52:26.086Z,101798.09
2022-07-30T02:54:57.214Z,101790.52
2022-07-30T02:57:26.930Z,101791.04
2022-07-30T02:59:57.512Z,101787.53
2022-07-30T03:02:31.481Z,101783.20
2022-07-30T03:05:04.373Z,101787.51
2022-07-30T03:07:34.879Z,101791.84
2022-07-30T03:10:04.697Z,101792.36
2022-07-30T03:12:35.455Z,101798.87
2022-07-30T03:15:05.148Z,101797.78
2022-07-30T03:17:39.863Z,101800.23
2022-07-30T03:20:11.758Z,101798.88
2022-07-30T03:22:49.203Z,101800.50
2022-07-30T03:25:21.626Z,101798.64
2022-07-30T03:27:52.807Z,101797.26
2022-07-30T03:30:23.984Z,101798.05
2022-07-30T03:32:57.411Z,101797.26
2022-07-30T03:35:27.415Z,101798.61
2022-07-30T03:37:58.553Z,101799.97
2022-07-30T03:40:28.767Z,101803.22
2022-07-30T03:42:58.149Z,101802.68
2022-07-30T03:45:27.976Z,101798.06
2022-07-30T03:47:59.597Z,101806.20
2022-07-30T03:50:29.599Z,101807.83
2022-07-30T03:52:59.304Z,101810.81
2022-07-30T03:55:30.172Z,101809.70
2022-07-30T03:58:02.867Z,101811.09
2022-07-30T04:00:32.297Z,101818.36
2022-07-30T04:03:01.796Z,101819.70
2022-07-30T04:05:41.323Z,101821.34
2022-07-30T04:08:03.976Z,101822.97
2022-07-30T04:10:35.621Z,101822.70
2022-07-30T04:13:15.889Z,101823.22
2022-07-30T04:16:37.717Z,101821.60
2022-07-30T04:18:32.647Z,101829.17
2022-07-30T04:21:04.418Z,101828.08
2022-07-30T04:23:34.515Z,101828.09
2022-07-30T04:26:05.946Z,101832.69
2022-07-30T04:28:36.521Z,101832.69
2022-07-30T04:31:06.906Z,101832.69
2022-07-30T04:33:36.528Z,101834.59
2022-07-30T04:36:14.966Z,101832.41
2022-07-30T04:38:41.947Z,101835.41
2022-07-30T04:41:12.207Z,101835.98
2022-07-30T04:43:59.671Z,101834.08
2022-07-30T04:46:30.690Z,101842.00
2022-07-30T04:49:00.198Z,101842.27
2022-07-30T04:51:36.033Z,101838.75
2022-07-30T04:54:08.112Z,101845.30
2022-07-30T04:56:39.171Z,101846.66
2022-07-30T04:59:09.080Z,101850.46
2022-07-30T05:01:41.058Z,101851.81
2022-07-30T05:04:11.974Z,101850.19
2022-07-30T05:06:42.056Z,101849.69
2022-07-30T05:09:12.231Z,101857.85
2022-07-30T05:11:41.568Z,101853.78
2022-07-30T05:14:11.843Z,101856.21
2022-07-30T05:16:41.101Z,101863.55
2022-07-30T05:19:10.843Z,101863.27
2022-07-30T05:21:40.152Z,101863.53
2022-07-30T05:24:09.726Z,101868.94
2022-07-30T05:26:40.870Z,101868.40
2022-07-30T05:29:19.491Z,101865.11
2022-07-30T05:31:47.521Z,101860.23
2022-07-30T05:34:17.717Z,101861.83
2022-07-30T05:36:47.523Z,101868.88
2022-07-30T05:39:18.687Z,101867.98
2022-07-30T05:42:06.132Z,101867.97
2022-07-30T05:44:37.089Z,101876.59
2022-07-30T05:47:06.684Z,101874.13
2022-07-30T05:49:36.445Z,101872.09
2022-07-30T05:52:07.778Z,101877.44
2022-07-30T05:54:37.113Z,101881.34
2022-07-30T05:57:11.527Z,101885.17
2022-07-30T05:59:41.980Z,101887.70
2022-07-30T06:02:12.986Z,101883.78
2022-07-30T06:04:50.304Z,101881.35
2022-07-30T06:07:19.937Z,101881.53
2022-07-30T06:09:49.445Z,101895.23
2022-07-30T06:12:18.853Z,101890.60
2022-07-30T06:14:48.505Z,101896.12
2022-07-30T06:17:19.471Z,101892.45
2022-07-30T06:19:50.950Z,101888.98
2022-07-30T06:22:25.544Z,101892.55
2022-07-30T06:24:53.717Z,101888.47
2022-07-30T06:27:25.949Z,101890.34
2022-07-30T06:29:55.701Z,101891.63
2022-07-30T06:32:24.955Z,101895.53
2022-07-30T06:35:02.459Z,101894.69
2022-07-30T06:38:05.828Z,101899.33
2022-07-30T06:39:58.758Z,101901.40
2022-07-30T06:42:29.408Z,101900.68
2022-07-30T06:45:06.724Z,101894.09
2022-07-30T06:47:59.114Z,101893.07
2022-07-30T06:50:30.172Z,101896.00
2022-07-30T06:52:59.816Z,101905.96
2022-07-30T06:55:30.773Z,101902.58
2022-07-30T06:58:01.938Z,101908.34
2022-07-30T07:00:49.364Z,101901.96
2022-07-30T07:03:20.032Z,101898.17
2022-07-30T07:05:49.349Z,101904.34
2022-07-30T07:08:18.991Z,101896.33
2022-07-30T07:10:50.045Z,101903.84
2022-07-30T07:13:30.019Z,101902.70
2022-07-30T07:15:59.734Z,101900.12
2022-07-30T07:18:29.185Z,101900.08
2022-07-30T07:21:03.414Z,101904.58
2022-07-30T07:23:41.411Z,101905.11
2022-07-30T07:26:04.170Z,101900.22
2022-07-30T07:28:34.268Z,101904.62
2022-07-30T07:31:04.332Z,101902.88
2022-07-30T07:33:33.863Z,101909.95
2022-07-30T07:36:03.597Z,101911.73
2022-07-30T07:38:34.378Z,101915.05
2022-07-30T07:41:05.453Z,101913.09
2022-07-30T07:43:35.248Z,101922.93
2022-07-30T07:46:04.909Z,101918.19
2022-07-30T07:48:35.093Z,101915.84
2022-07-30T07:51:09.660Z,101924.96
2022-07-30T07:53:39.455Z,101925.27
2022-07-30T07:56:08.896Z,101927.70
2022-07-30T07:58:40.491Z,101932.69
2022-07-30T08:01:11.675Z,101928.87
2022-07-30T08:03:55.024Z,101927.09
2022-07-30T08:06:29.053Z,101923.55
2022-07-30T08:09:01.663Z,101911.70
2022-07-30T08:11:35.739Z,101909.90
2022-07-30T08:14:09.482Z,101921.64
2022-07-30T08:16:55.634Z,101928.16
2022-07-30T08:19:29.455Z,101926.79
2022-07-30T08:22:00.431Z,101916.91
2022-07-30T08:24:31.521Z,101914.01
2022-07-30T08:27:01.541Z,101909.04
2022-07-30T08:29:31.401Z,101901.11
2022-07-30T08:32:01.853Z,101910.01
2022-07-30T08:34:31.709Z,101904.78
2022-07-30T08:37:01.147Z,101902.39
2022-07-30T08:39:30.917Z,101897.66
2022-07-30T08:42:01.683Z,101899.37
2022-07-30T08:44:31.931Z,101897.33
2022-07-30T08:47:01.764Z,101894.63
2022-07-30T08:49:36.226Z,101897.36
2022-07-30T08:52:08.370Z,101904.08
2022-07-30T08:54:41.894Z,101906.53
2022-07-30T08:57:13.477Z,101916.06
2022-07-30T09:00:00.095Z,101919.50
2022-07-30T09:02:15.579Z,101927.42
2022-07-30T09:04:48.287Z,101924.42
2022-07-30T09:07:18.328Z,101930.55
2022-07-30T09:09:48.116Z,101923.72
2022-07-30T09:12:36.263Z,101920.50
2022-07-30T09:15:16.538Z,101918.95
2022-07-30T09:17:54.028Z,101923.20
2022-07-30T09:20:26.290Z,101924.47
2022-07-30T09:22:57.851Z,101928.64
2022-07-30T09:25:47.912Z,101923.21
2022-07-30T09:28:35.658Z,101929.44
2022-07-30T09:31:19.314Z,101931.09
2022-07-30T09:34:09.436Z,101928.48
2022-07-30T09:36:46.875Z,101935.63
2022-07-30T09:39:37.269Z,101937.02
2022-07-30T09:42:21.841Z,101926.73
2022-07-30T09:44:54.187Z,101932.98
2022-07-30T09:47:36.059Z,101923.18
2022-07-30T09:50:11.250Z,101927.28
2022-07-30T09:52:43.957Z,101924.98
2022-07-30T09:55:15.481Z,101924.77
2022-07-30T09:57:59.047Z,101933.35
2022-07-30T10:00:30.323Z,101935.92
2022-07-30T10:03:21.773Z,101928.42
2022-07-30T10:06:08.330Z,101936.30
2022-07-30T10:08:42.570Z,101939.54
2022-07-30T10:11:16.382Z,101935.00
2022-07-30T10:13:47.057Z,101933.95
2022-07-30T10:16:18.319Z,101935.44
2022-07-30T10:18:48.405Z,101934.36
2022-07-30T10:21:37.280Z,101935.59
2022-07-30T10:24:27.669Z,101933.02
2022-07-30T10:27:14.968Z,101931.75
2022-07-30T10:30:04.433Z,101931.08
2022-07-30T10:32:35.234Z,101938.13
2022-07-30T10:35:05.200Z,101940.92
2022-07-30T10:37:36.328Z,101931.45
2022-07-30T10:40:23.028Z,101932.63
2022-07-30T10:42:54.867Z,101932.95
2022-07-30T10:45:30.416Z,101931.55
2022-07-30T10:48:00.211Z,101924.36
2022-07-30T10:50:29.814Z,101928.87
2022-07-30T10:53:01.328Z,101926.84
2022-07-30T10:55:38.499Z,101921.98
2022-07-30T10:58:12.368Z,101923.42
2022-07-30T11:00:59.094Z,101927.00
2022-07-30T11:03:40.265Z,101923.27
2022-07-30T11:06:24.355Z,101921.22
2022-07-30T11:08:50.660Z,101922.13
2022-07-30T11:12:01.160Z,101913.06
2022-07-30T11:14:02.497Z,101909.17
2022-07-30T11:16:37.786Z,101909.19
2022-07-30T11:21:42.348Z,101909.37
2022-07-30T11:24:45.632Z,101914.31
2022-07-30T11:27:37.212Z,101915.78
2022-07-30T11:30:09.767Z,101915.22
2022-07-30T11:32:39.208Z,101912.31
2022-07-30T11:35:25.564Z,101916.95
2022-07-30T11:38:07.738Z,101913.02
2022-07-30T11:40:52.225Z,101908.64
2022-07-30T11:43:36.007Z,101908.86
2022-07-30T11:46:29.587Z,101909.62
2022-07-30T11:48:59.778Z,101906.52
2022-07-30T11:51:30.675Z,101913.58
2022-07-30T11:54:07.873Z,101908.33
2022-07-30T11:56:37.305Z,101910.75
2022-07-30T11:59:08.368Z,101904.17
2022-07-30T12:01:37.717Z,101907.42
2022-07-30T12:04:09.200Z,101902.58
2022-07-30T12:06:49.031Z,101906.00
2022-07-30T12:09:27.829Z,101907.45
2022-07-30T12:11:57.921Z,101902.02
2022-07-30T12:14:27.148Z,101905.48
2022-07-30T12:16:56.496Z,101903.49
2022-07-30T12:19:25.742Z,101905.06
2022-07-30T12:21:58.313Z,101905.53
2022-07-30T12:24:28.114Z,101902.73
2022-07-30T12:27:08.208Z,101910.00
2022-07-30T12:29:37.729Z,101901.66
2022-07-30T12:32:07.104Z,101903.05
2022-07-30T12:34:36.409Z,101903.09
2022-07-30T12:37:10.482Z,101903.71
2022-07-30T12:39:40.432Z,101907.13
2022-07-30T12:42:13.128Z,101907.26
2022-07-30T12:44:45.436Z,101906.80
2022-07-30T12:47:28.888Z,101910.69
2022-07-30T12:50:00.814Z,101907.78
2022-07-30T12:52:35.564Z,101907.35
2022-07-30T12:55:08.677Z,101902.25
2022-07-30T12:58:05.425Z,101901.56
2022-07-30T13:00:36.348Z,101891.00
2022-07-30T13:03:08.780Z,101887.52
2022-07-30T13:05:56.354Z,101899.17
2022-07-30T13:08:51.099Z,101891.47
2022-07-30T13:11:22.592Z,101898.05
2022-07-30T13:13:52.645Z,101896.90
2022-07-30T13:16:22.613Z,101887.71
2022-07-30T13:18:51.899Z,101883.25
2022-07-30T13:21:21.211Z,101882.09
2022-07-30T13:23:50.480Z,101885.09
2022-07-30T13:26:20.050Z,101876.88
2022-07-30T13:28:49.703Z,101876.83
2022-07-30T13:31:19.352Z,101873.90
2022-07-30T13:33:49.947Z,101883.02
2022-07-30T13:36:19.263Z,101879.62
2022-07-30T13:38:52.239Z,101878.20
2022-07-30T13:41:19.920Z,101874.22
2022-07-30T13:43:50.155Z,101871.55
2022-07-30T13:46:19.430Z,101872.25
2022-07-30T13:48:48.835Z,101875.88
2022-07-30T13:51:18.688Z,101874.66
2022-07-30T13:53:47.921Z,101872.33
2022-07-30T13:56:19.641Z,101865.21
2022-07-30T13:58:48.555Z,101867.34
2022-07-30T14:01:19.494Z,101868.59
2022-07-30T14:03:50.887Z,101871.53
2022-07-30T14:06:23.388Z,101866.12
2022-07-30T14:08:52.639Z,101863.58
2022-07-30T14:11:21.976Z,101859.06
2022-07-30T14:13:52.014Z,101857.50
2022-07-30T14:16:43.525Z,101857.13
2022-07-30T14:18:52.303Z,101856.88
2022-07-30T14:21:22.002Z,101852.73
2022-07-30T14:23:51.286Z,101842.30
2022-07-30T14:26:20.609Z,101839.42
2022-07-30T14:28:49.862Z,101842.69
2022-07-30T14:31:19.286Z,101840.61
2022-07-30T14:33:48.513Z,101837.59
2022-07-30T14:36:17.803Z,101839.24
2022-07-30T14:38:47.154Z,101835.22
2022-07-30T14:41:16.549Z,101832.56
2022-07-30T14:43:45.785Z,101834.34
2022-07-30T14:46:15.287Z,101833.53
2022-07-30T14:48:44.937Z,101826.63
2022-07-30T14:51:20.735Z,101827.33
2022-07-30T14:53:47.145Z,101829.72
2022-07-30T14:56:17.861Z,101827.22
2022-07-30T14:58:47.483Z,101824.57
2022-07-30T15:01:17.250Z,101827.33
2022-07-30T15:03:46.811Z,101823.72
2022-07-30T15:06:17.267Z,101827.17
2022-07-30T15:08:46.589Z,101829.87
2022-07-30T15:11:15.872Z,101822.88
2022-07-30T15:13:50.588Z,101824.13
2022-07-30T15:16:17.151Z,101822.03
2022-07-30T15:18:46.682Z,101822.90
2022-07-30T15:21:16.094Z,101824.78
2022-07-30T15:23:45.509Z,101820.58
2022-07-30T15:26:14.833Z,101816.22
2022-07-30T15:28:44.169Z,101821.80
2022-07-30T15:31:13.403Z,101824.38
2022-07-30T15:33:44.630Z,101821.91
2022-07-30T15:36:14.034Z,101819.70
2022-07-30T15:38:43.687Z,101817.80
2022-07-30T15:41:14.656Z,101821.30
2022-07-30T15:43:44.649Z,101817.83
2022-07-30T15:46:13.897Z,101822.55
2022-07-30T15:48:43.183Z,101810.30
2022-07-30T15:51:12.852Z,101817.27
2022-07-30T15:53:42.290Z,101817.66
2022-07-30T15:56:11.632Z,101816.73
2022-07-30T15:58:43.574Z,101820.34
2022-07-30T16:01:12.174Z,101814.84
2022-07-30T16:03:41.512Z,101824.88
2022-07-30T16:06:10.802Z,101822.75
2022-07-30T16:08:40.062Z,101819.73
2022-07-30T16:11:10.875Z,101814.41
2022-07-30T16:13:40.549Z,101816.98
2022-07-30T16:16:10.134Z,101811.49
2022-07-30T16:18:39.416Z,101808.61
2022-07-30T16:21:08.821Z,101816.05
2022-07-30T16:23:39.039Z,101812.06
2022-07-30T16:26:09.133Z,101810.30
2022-07-30T16:28:39.896Z,101810.38
2022-07-30T16:31:09.154Z,101800.31
2022-07-30T16:33:38.383Z,101802.00
2022-07-30T16:36:08.269Z,101806.55
2022-07-30T16:38:38.249Z,101799.61
2022-07-30T16:41:12.923Z,101804.09
2022-07-30T16:43:38.859Z,101795.49
2022-07-30T16:46:08.325Z,101797.44
2022-07-30T16:48:37.691Z,101797.09
2022-07-30T16:51:07.670Z,101796.73
2022-07-30T16:53:38.592Z,101791.23
2022-07-30T16:56:07.894Z,101786.14
2022-07-30T16:58:37.248Z,101782.02
2022-07-30T17:01:06.587Z,101788.91
2022-07-30T17:03:36.667Z,101787.41
2022-07-30T17:06:05.951Z,101778.12
2022-07-30T17:08:35.402Z,101783.06
2022-07-30T17:11:08.890Z,101779.30
2022-07-30T17:13:36.891Z,101771.70
2022-07-30T17:16:07.262Z,101768.03
2022-07-30T17:18:36.559Z,101768.11
2022-07-30T17:21:05.810Z,101761.41
2022-07-30T17:23:36.233Z,101760.14
2022-07-30T17:26:05.994Z,101757.55
2022-07-30T17:28:35.658Z,101760.04
2022-07-30T17:31:05.359Z,101765.52
2022-07-30T17:33:34.738Z,101765.81
2022-07-30T17:36:05.025Z,101761.52
2022-07-30T17:38:34.317Z,101757.16
2022-07-30T17:41:03.661Z,101761.84
2022-07-30T17:43:32.895Z,101760.30
2022-07-30T17:46:02.518Z,101758.43
2022-07-30T17:48:31.855Z,101763.16
2022-07-30T17:51:01.954Z,101766.69
2022-07-30T17:53:31.551Z,101764.27
2022-07-30T17:56:02.499Z,101759.52
2022-07-30T17:58:31.902Z,101757.74
2022-07-30T18:01:02.795Z,101754.27
2022-07-30T18:03:32.809Z,101755.43
2022-07-30T18:06:02.217Z,101759.71
2022-07-30T18:08:32.802Z,101754.39
2022-07-30T18:11:02.142Z,101751.00
2022-07-30T18:13:31.401Z,101750.98
2022-07-30T18:16:00.726Z,101755.10
2022-07-30T18:18:29.946Z,101755.03
2022-07-30T18:20:59.305Z,101752.85
2022-07-30T18:23:34.725Z,101756.06
2022-07-30T18:25:59.929Z,101764.64
2022-07-30T18:28:29.172Z,101752.44
2022-07-30T18:30:58.442Z,101751.80
2022-07-30T18:33:27.777Z,101750.03
2022-07-30T18:35:57.064Z,101752.94
2022-07-30T18:38:26.453Z,101747.52
2022-07-30T18:40:58.766Z,101745.16
2022-07-30T18:43:29.521Z,101739.03
2022-07-30T18:46:00.333Z,101745.98
2022-07-30T18:48:29.559Z,101747.19
2022-07-30T18:50:58.806Z,101747.70
2022-07-30T18:53:28.740Z,101746.48
2022-07-30T18:55:58.044Z,101752.83
2022-07-30T18:58:27.284Z,101757.32
2022-07-30T19:00:56.599Z,101752.31
2022-07-30T19:03:25.943Z,101750.62
2022-07-30T19:05:55.216Z,101747.45
2022-07-30T19:08:24.537Z,101753.60
2022-07-30T19:10:54.399Z,101749.40
2022-07-30T19:13:24.529Z,101750.27
2022-07-30T19:15:54.322Z,101749.31
2022-07-30T19:18:23.677Z,101747.82
2022-07-30T19:20:53.402Z,101749.28
2022-07-30T19:23:22.739Z,101746.12
2022-07-30T19:25:51.966Z,101743.47
2022-07-30T19:28:21.244Z,101743.20
2022-07-30T19:30:50.518Z,101743.20
2022-07-30T19:33:20.663Z,101739.92
2022-07-30T19:35:50.290Z,101746.20
2022-07-30T19:38:22.138Z,101739.80
2022-07-30T19:40:50.644Z,101736.33
2022-07-30T19:43:24.079Z,101741.06
2022-07-30T19:45:51.096Z,101737.61
2022-07-30T19:48:29.631Z,101740.97
2022-07-30T19:50:51.490Z,101741.44
2022-07-30T19:53:20.732Z,101747.35
2022-07-30T19:55:51.179Z,101743.62
2022-07-30T19:58:21.732Z,101749.75
2022-07-30T20:00:52.835Z,101745.77
2022-07-30T20:03:25.540Z,101748.13
2022-07-30T20:05:57.591Z,101749.16
2022-07-30T20:08:24.777Z,101752.67
2022-07-30T20:10:57.700Z,101751.80
2022-07-30T20:13:45.121Z,101752.73
2022-07-30T20:15:58.754Z,101751.73
2022-07-30T20:18:29.154Z,101754.80
2022-07-30T20:20:58.725Z,101758.66
2022-07-30T20:23:29.469Z,101762.52
2022-07-30T20:26:00.080Z,101762.33
2022-07-30T20:28:29.874Z,101762.70
2022-07-30T20:30:59.744Z,101768.69
2022-07-30T20:33:35.808Z,101773.64
2022-07-30T20:36:00.867Z,101768.37
2022-07-30T20:38:30.404Z,101773.32
2022-07-30T20:41:03.445Z,101778.80
2022-07-30T20:43:34.553Z,101777.75
2022-07-30T20:46:06.838Z,101778.31
2022-07-30T20:48:37.859Z,101780.33
2022-07-30T20:51:09.483Z,101789.70
2022-07-30T20:53:38.485Z,101798.19
2022-07-30T20:56:07.732Z,101786.80
2022-07-30T20:58:37.205Z,101784.22
2022-07-30T21:01:06.635Z,101782.83
2022-07-30T21:03:37.458Z,101786.02
2022-07-30T21:06:07.021Z,101783.58
2022-07-30T21:08:36.300Z,101779.94
2022-07-30T21:11:06.357Z,101772.83
2022-07-30T21:13:37.658Z,101779.88
2022-07-30T21:18:39.183Z,101777.25
2022-07-30T21:21:09.505Z,101777.49
2022-07-30T21:23:40.541Z,101777.70
2022-07-30T21:28:40.747Z,101775.77
2022-07-30T21:31:10.060Z,101781.22
2022-07-30T21:33:39.477Z,101781.82
2022-07-30T21:36:10.264Z,101782.16
2022-07-30T21:38:41.852Z,101776.88
2022-07-30T21:41:14.353Z,101782.17
2022-07-30T21:43:45.078Z,101783.57
2022-07-30T21:46:15.238Z,101783.07
2022-07-30T21:48:47.043Z,101784.58
2022-07-30T21:51:16.472Z,101781.63
2022-07-30T21:53:46.530Z,101781.93
2022-07-30T21:56:16.372Z,101782.52
2022-07-30T21:58:45.786Z,101771.65
2022-07-30T22:01:18.680Z,101774.70
2022-07-30T22:04:04.012Z,101774.70
2022-07-30T22:06:20.528Z,101770.98
2022-07-30T22:08:51.585Z,101774.27
2022-07-30T22:11:20.897Z,101765.77
2022-07-30T22:13:53.674Z,101766.08
2022-07-30T22:16:21.879Z,101768.02
2022-07-30T22:18:51.134Z,101769.14
2022-07-30T22:21:21.870Z,101779.75
2022-07-30T22:23:58.151Z,101779.24
2022-07-30T22:26:24.248Z,101784.23
2022-07-30T22:28:55.101Z,101785.30
2022-07-30T22:31:24.544Z,101775.02
2022-07-30T22:33:55.513Z,101772.81
2022-07-30T22:36:26.661Z,101768.59
2022-07-30T22:38:58.711Z,101775.05
2022-07-30T22:41:28.910Z,101779.12
2022-07-30T22:43:57.914Z,101778.42
2022-07-30T22:46:31.030Z,101779.37
2022-07-30T22:48:59.207Z,101785.73
2022-07-30T22:51:42.383Z,101782.17
2022-07-30T22:54:12.572Z,101784.26
2022-07-30T22:56:31.068Z,101790.62
2022-07-30T22:59:01.739Z,101786.52
2022-07-30T23:01:32.754Z,101780.56
2022-07-30T23:04:02.044Z,101784.57
2022-07-30T23:06:31.375Z,101788.61
2022-07-30T23:09:02.519Z,101780.73
2022-07-30T23:11:37.299Z,101779.61
2022-07-30T23:12:27.039Z,101772.89
2022-07-30T23:12:27.315Z,101780.64
2022-07-30T23:14:02.857Z,101771.95
2022-07-30T23:16:32.178Z,101764.41
2022-07-30T23:19:01.703Z,101766.08
2022-07-30T23:21:31.206Z,101755.59
2022-07-30T23:24:00.854Z,101753.39
2022-07-30T23:26:30.272Z,101750.19
2022-07-30T23:28:59.822Z,101751.16
2022-07-30T23:31:29.374Z,101752.27
2022-07-30T23:33:58.663Z,101734.02
2022-07-30T23:36:28.030Z,101731.57
2022-07-30T23:38:57.305Z,101728.91
2022-07-30T23:41:29.775Z,101726.52
2022-07-30T23:43:58.241Z,101723.97
2022-07-30T23:46:27.698Z,101716.66
2022-07-30T23:48:57.093Z,101720.52
2022-07-30T23:51:26.552Z,101709.23
2022-07-30T23:53:58.276Z,101719.90
2022-07-30T23:56:27.674Z,101720.77
2022-07-30T23:58:56.949Z,101724.42
